Time;durP1;ratioP1;P1;durP2;ratioP2;P2;SDS_P1;SDS_P2;PMS_P1;PMS_P2;Temp;Humidity;BMP_temperature;BMP_pressure;BME280_temperature;BME280_humidity;BME280_pressure;Samples;Min_cycle;Max_cycle;Signal;HPM_P1;HPM_P2
2021/09/24 00:01:53;;;;;;;8.57;6.43;;;16.30;99.90;;;;;;5094046;28;20182;-81
2021/09/24 00:04:18;;;;;;;14.23;6.90;;;16.30;99.90;;;;;;5093750;28;20211;-79
2021/09/24 00:06:45;;;;;;;8.23;6.20;;;16.30;99.90;;;;;;5093502;28;20196;-82
2021/09/24 00:09:11;;;;;;;10.97;6.53;;;16.40;99.90;;;;;;5093703;28;20292;-80
2021/09/24 00:11:40;;;;;;;8.93;5.90;;;16.40;99.90;;;;;;5093542;28;20171;-79
2021/09/24 00:14:06;;;;;;;9.17;5.67;;;16.40;99.90;;;;;;5094115;28;20616;-79
2021/09/24 00:16:33;;;;;;;9.50;6.10;;;16.40;99.90;;;;;;5093540;28;20206;-79
2021/09/24 00:19:01;;;;;;;9.47;5.87;;;16.30;99.90;;;;;;5098554;28;20170;-81
2021/09/24 00:21:29;;;;;;;10.43;5.97;;;16.30;99.90;;;;;;5077139;28;20537;-80
2021/09/24 00:24:04;;;;;;;8.40;5.77;;;16.20;99.90;;;;;;5093973;28;20209;-78
2021/09/24 00:26:31;;;;;;;10.83;5.77;;;16.30;99.90;;;;;;5093840;28;20615;-79
2021/09/24 00:28:58;;;;;;;10.90;5.77;;;16.30;99.90;;;;;;5093921;28;20174;-80
2021/09/24 00:31:25;;;;;;;6.27;5.47;;;16.40;99.90;;;;;;5093243;28;20193;-81
2021/09/24 00:33:51;;;;;;;10.43;6.20;;;16.50;99.90;;;;;;5093245;28;20236;-79
2021/09/24 00:36:16;;;;;;;12.67;6.53;;;16.40;99.90;;;;;;5074944;28;20303;-81
2021/09/24 00:38:43;;;;;;;9.63;6.10;;;16.50;99.90;;;;;;5093214;28;20593;-81
2021/09/24 00:41:10;;;;;;;11.03;6.47;;;16.60;99.90;;;;;;5093538;28;20172;-82
2021/09/24 00:43:36;;;;;;;10.90;6.30;;;16.50;99.90;;;;;;5092993;28;20313;-80
2021/09/24 00:46:03;;;;;;;9.67;6.63;;;16.50;99.90;;;;;;5093431;28;20182;-80
2021/09/24 00:48:29;;;;;;;9.63;6.37;;;16.40;99.90;;;;;;5093772;28;20172;-79
2021/09/24 00:50:55;;;;;;;9.93;7.27;;;16.50;99.90;;;;;;5097413;28;20172;-80
2021/09/24 00:53:22;;;;;;;11.07;6.70;;;16.70;99.90;;;;;;5098192;28;20182;-81
2021/09/24 00:55:48;;;;;;;17.77;7.50;;;16.60;99.90;;;;;;5097774;28;20206;-81
2021/09/24 00:58:13;;;;;;;13.00;7.80;;;16.60;99.90;;;;;;5103367;28;20159;-81
2021/09/24 01:00:39;;;;;;;11.47;6.87;;;16.60;99.90;;;;;;5103579;28;20167;-78
2021/09/24 01:03:05;;;;;;;11.47;7.07;;;16.60;99.90;;;;;;5103274;28;20196;-78
2021/09/24 01:05:30;;;;;;;10.33;7.67;;;16.70;99.90;;;;;;5103991;28;20199;-80
2021/09/24 01:07:56;;;;;;;12.83;7.97;;;16.60;99.90;;;;;;5104932;28;20182;-80
2021/09/24 01:10:22;;;;;;;11.33;7.67;;;16.60;99.90;;;;;;5105953;28;20688;-80
2021/09/24 01:12:48;;;;;;;12.43;7.87;;;16.50;99.90;;;;;;5105814;28;20166;-78
2021/09/24 01:15:16;;;;;;;13.03;7.67;;;16.60;99.90;;;;;;5101045;28;20262;-81
2021/09/24 01:17:43;;;;;;;13.17;8.20;;;16.50;99.90;;;;;;5096547;28;20164;-80
2021/09/24 01:20:12;;;;;;;12.40;7.63;;;16.50;99.90;;;;;;5096663;28;20174;-78
2021/09/24 01:22:38;;;;;;;14.57;8.47;;;16.40;99.90;;;;;;5097693;28;20228;-81
2021/09/24 01:25:06;;;;;;;13.40;9.17;;;16.40;99.90;;;;;;5097571;28;20168;-81
2021/09/24 01:27:32;;;;;;;12.77;9.00;;;16.40;99.90;;;;;;5096982;28;20160;-81
2021/09/24 01:29:58;;;;;;;13.90;9.57;;;16.60;99.90;;;;;;5105276;28;20176;-80
2021/09/24 01:32:24;;;;;;;12.87;9.20;;;16.50;99.90;;;;;;5101333;28;20581;-81
2021/09/24 01:34:50;;;;;;;15.23;9.77;;;16.50;99.90;;;;;;5096227;28;20671;-80
2021/09/24 01:37:16;;;;;;;19.97;10.37;;;16.70;99.90;;;;;;5096443;28;20213;-80
2021/09/24 01:39:42;;;;;;;13.73;9.63;;;16.60;99.90;;;;;;5096440;28;20167;-80
2021/09/24 01:42:08;;;;;;;22.70;10.30;;;16.70;99.90;;;;;;5095907;28;20160;-80
2021/09/24 01:44:34;;;;;;;17.30;10.37;;;16.70;99.90;;;;;;5096078;28;20582;-80
2021/09/24 01:47:00;;;;;;;14.30;10.10;;;16.70;99.90;;;;;;5096257;28;20168;-81
2021/09/24 01:49:26;;;;;;;15.60;9.97;;;16.70;99.90;;;;;;5101746;28;20171;-80
2021/09/24 01:51:53;;;;;;;16.10;10.80;;;16.90;99.90;;;;;;5107599;28;20512;-80
2021/09/24 01:54:21;;;;;;;18.47;11.57;;;16.80;99.90;;;;;;5098838;28;20160;-79
2021/09/24 01:56:47;;;;;;;17.23;11.10;;;16.70;99.90;;;;;;5095747;28;20289;-81
2021/09/24 01:59:13;;;;;;;16.83;10.57;;;16.80;99.90;;;;;;5096056;28;20179;-80
2021/09/24 02:01:39;;;;;;;17.97;11.37;;;16.80;99.90;;;;;;5095357;28;20176;-78
2021/09/24 02:04:05;;;;;;;16.83;10.23;;;16.80;99.90;;;;;;5095802;28;20219;-79
2021/09/24 02:06:31;;;;;;;17.03;10.53;;;16.90;99.90;;;;;;5077640;28;20187;-78
2021/09/24 02:08:56;;;;;;;14.70;10.67;;;16.90;99.90;;;;;;5095809;28;20543;-81
2021/09/24 02:11:22;;;;;;;17.63;11.00;;;16.80;99.90;;;;;;5113770;28;20180;-79
2021/09/24 02:13:47;;;;;;;15.57;10.57;;;17.00;99.90;;;;;;5120218;28;20228;-79
2021/09/24 02:16:13;;;;;;;17.57;10.97;;;17.00;99.90;;;;;;5090223;28;20222;-79
2021/09/24 02:18:40;;;;;;;16.47;11.20;;;16.90;99.90;;;;;;5104218;28;20232;-79
2021/09/24 02:21:06;;;;;;;18.00;11.13;;;17.10;99.90;;;;;;5104206;28;20164;-79
2021/09/24 02:23:32;;;;;;;16.43;11.90;;;17.10;99.90;;;;;;5103339;28;20176;-82
2021/09/24 02:25:58;;;;;;;17.93;12.13;;;17.10;99.90;;;;;;5102988;28;20164;-77
2021/09/24 02:28:24;;;;;;;16.83;11.40;;;17.20;99.90;;;;;;5082354;28;20174;-81
2021/09/24 02:30:49;;;;;;;18.93;11.83;;;17.20;99.90;;;;;;5095552;28;20540;-77
2021/09/24 02:33:15;;;;;;;18.40;11.30;;;17.30;99.90;;;;;;5095085;28;20167;-80
2021/09/24 02:35:41;;;;;;;18.73;11.97;;;17.30;99.90;;;;;;5095478;28;20305;-80
2021/09/24 02:38:07;;;;;;;16.03;11.60;;;17.30;99.90;;;;;;5095699;28;20710;-80
2021/09/24 02:40:32;;;;;;;17.40;11.77;;;17.30;99.90;;;;;;5095374;28;20167;-79
2021/09/24 02:42:58;;;;;;;16.53;10.80;;;17.30;99.90;;;;;;5109799;28;20192;-77
2021/09/24 02:45:24;;;;;;;16.73;11.17;;;17.30;99.90;;;;;;5119924;28;20225;-79
2021/09/24 02:47:50;;;;;;;20.87;11.43;;;17.20;99.90;;;;;;5120022;28;20153;-76
2021/09/24 02:50:16;;;;;;;18.37;11.30;;;17.30;99.90;;;;;;5100712;28;20172;-80
2021/09/24 02:52:42;;;;;;;14.70;11.43;;;17.40;99.90;;;;;;5095913;28;20168;-80
2021/09/24 02:55:08;;;;;;;14.53;10.00;;;17.30;99.90;;;;;;5098093;28;20265;-78
2021/09/24 02:57:40;;;;;;;16.07;11.23;;;17.30;99.90;;;;;;5094896;28;20160;-80
2021/09/24 03:00:09;;;;;;;16.20;10.83;;;17.30;99.90;;;;;;5076955;28;20175;-80
2021/09/24 03:02:35;;;;;;;16.53;10.63;;;17.40;99.90;;;;;;5094975;28;20160;-80
2021/09/24 03:05:06;;;;;;;18.10;10.63;;;17.40;99.90;;;;;;5076224;28;20324;-80
2021/09/24 03:07:32;;;;;;;14.87;10.70;;;17.30;99.90;;;;;;5093964;28;20183;-80
2021/09/24 03:09:57;;;;;;;19.60;10.40;;;17.30;99.90;;;;;;5094477;28;20176;-80
2021/09/24 03:12:23;;;;;;;20.13;10.90;;;17.30;99.90;;;;;;5093919;28;20166;-80
2021/09/24 03:14:49;;;;;;;16.73;10.00;;;17.30;99.90;;;;;;5105494;28;20205;-79
2021/09/24 03:17:14;;;;;;;16.73;10.50;;;17.20;99.90;;;;;;5094877;28;20177;-77
2021/09/24 03:19:42;;;;;;;14.80;10.60;;;17.10;99.90;;;;;;5097451;28;20535;-80
2021/09/24 03:22:07;;;;;;;13.57;9.60;;;17.00;99.90;;;;;;5094245;28;20221;-80
2021/09/24 03:24:35;;;;;;;12.83;9.83;;;16.90;99.90;;;;;;5094475;28;20175;-80
2021/09/24 03:27:00;;;;;;;13.83;9.73;;;17.00;99.90;;;;;;5094387;28;20690;-80
2021/09/24 03:29:27;;;;;;;13.23;9.43;;;17.10;99.90;;;;;;5076235;28;20179;-77
2021/09/24 03:31:53;;;;;;;14.47;10.37;;;17.20;99.90;;;;;;5094155;28;20164;-80
2021/09/24 03:34:18;;;;;;;14.47;9.87;;;17.30;99.90;;;;;;5094193;28;20244;-80
2021/09/24 03:36:44;;;;;;;18.20;11.43;;;17.10;99.90;;;;;;5093748;28;20172;-78
2021/09/24 03:39:13;;;;;;;14.60;9.87;;;17.10;99.90;;;;;;5094125;28;20164;-79
2021/09/24 03:41:42;;;;;;;17.63;11.77;;;17.00;99.90;;;;;;5093847;28;20175;-79
2021/09/24 03:44:09;;;;;;;13.43;9.30;;;16.90;99.90;;;;;;5095843;28;20259;-77
2021/09/24 03:46:34;;;;;;;17.83;10.30;;;16.80;99.90;;;;;;5095792;28;20620;-80
2021/09/24 03:49:00;;;;;;;15.20;10.77;;;16.70;99.90;;;;;;5094745;28;20186;-81
2021/09/24 03:51:26;;;;;;;17.00;10.63;;;16.80;99.90;;;;;;5095342;28;20164;-78
2021/09/24 03:53:52;;;;;;;15.53;10.27;;;16.80;99.90;;;;;;5094511;28;20267;-76
2021/09/24 03:56:17;;;;;;;17.03;10.67;;;16.80;99.90;;;;;;5101410;28;20203;-80
2021/09/24 03:58:43;;;;;;;15.93;9.97;;;16.80;99.90;;;;;;5076466;28;20688;-78
2021/09/24 04:01:08;;;;;;;17.57;10.53;;;17.00;99.90;;;;;;5104613;28;20194;-80
2021/09/24 04:03:34;;;;;;;17.47;10.47;;;16.80;99.90;;;;;;5115524;28;20180;-78
2021/09/24 04:06:00;;;;;;;15.60;10.50;;;16.90;99.90;;;;;;5079255;28;20196;-80
2021/09/24 04:08:25;;;;;;;16.60;9.97;;;16.90;99.90;;;;;;5093939;28;20624;-80
2021/09/24 04:10:53;;;;;;;15.80;10.50;;;17.00;99.90;;;;;;5093778;28;20294;-80
2021/09/24 04:13:21;;;;;;;17.37;9.93;;;17.00;99.90;;;;;;5093539;28;20171;-78
2021/09/24 04:15:47;;;;;;;13.60;9.33;;;17.00;99.90;;;;;;5075882;28;20323;-80
2021/09/24 04:18:13;;;;;;;14.50;10.00;;;17.00;99.90;;;;;;5096258;28;20168;-75
2021/09/24 04:20:47;;;;;;;17.67;9.97;;;17.10;99.90;;;;;;5111748;28;20222;-79
2021/09/24 04:23:16;;;;;;;13.13;9.67;;;17.00;99.90;;;;;;5103207;28;20162;-78
2021/09/24 04:25:44;;;;;;;15.27;10.50;;;17.00;99.90;;;;;;5097472;28;20173;-79
2021/09/24 04:28:10;;;;;;;16.50;11.60;;;16.90;99.90;;;;;;5095649;28;20160;-77
2021/09/24 04:30:35;;;;;;;16.77;11.27;;;16.80;99.90;;;;;;5076851;28;20179;-80
2021/09/24 04:33:01;;;;;;;18.00;12.07;;;16.90;99.90;;;;;;5094682;28;20682;-76
2021/09/24 04:35:27;;;;;;;21.73;12.43;;;16.80;99.90;;;;;;5095419;28;20212;-77
2021/09/24 04:37:52;;;;;;;21.27;13.60;;;16.80;99.90;;;;;;5095618;28;20156;-79
2021/09/24 04:40:19;;;;;;;19.50;12.80;;;16.90;99.90;;;;;;5105642;28;20159;-77
2021/09/24 04:42:45;;;;;;;21.03;13.77;;;16.80;99.90;;;;;;5116054;28;20191;-79
2021/09/24 04:45:11;;;;;;;18.33;13.67;;;16.80;99.90;;;;;;5100405;28;20194;-80
2021/09/24 04:47:37;;;;;;;20.70;14.23;;;16.90;99.90;;;;;;5094767;28;20168;-80
2021/09/24 04:50:07;;;;;;;21.37;14.53;;;16.80;99.90;;;;;;5093437;28;20171;-78
2021/09/24 04:52:33;;;;;;;22.93;13.67;;;16.80;99.90;;;;;;5093312;28;20172;-80
2021/09/24 04:54:59;;;;;;;21.77;13.83;;;16.90;99.90;;;;;;5093127;28;20214;-76
2021/09/24 04:57:25;;;;;;;17.03;14.10;;;16.90;99.90;;;;;;5093185;28;20167;-78
2021/09/24 04:59:50;;;;;;;20.00;14.53;;;16.90;99.90;;;;;;5093516;28;20654;-78
2021/09/24 05:02:16;;;;;;;21.07;13.97;;;16.90;99.90;;;;;;5075152;28;20657;-79
2021/09/24 05:04:43;;;;;;;23.37;15.60;;;17.00;99.90;;;;;;5092852;28;20283;-79
2021/09/24 05:07:09;;;;;;;24.17;16.03;;;17.00;99.90;;;;;;5092901;28;20520;-79
2021/09/24 05:09:36;;;;;;;21.70;15.40;;;17.20;99.90;;;;;;5075099;28;20231;-78
2021/09/24 05:12:02;;;;;;;23.13;16.00;;;17.00;99.90;;;;;;5092967;28;20643;-80
2021/09/24 05:14:28;;;;;;;24.57;14.60;;;16.80;99.90;;;;;;5093134;28;20174;-77
2021/09/24 05:16:53;;;;;;;20.13;14.77;;;16.90;99.90;;;;;;5092962;28;20175;-78
2021/09/24 05:19:19;;;;;;;20.10;14.73;;;16.80;99.90;;;;;;5092913;28;20172;-79
2021/09/24 05:21:45;;;;;;;19.63;15.03;;;16.90;99.90;;;;;;5092265;28;20515;-79
2021/09/24 05:24:10;;;;;;;22.60;14.80;;;16.90;99.90;;;;;;5093021;28;20168;-79
2021/09/24 05:26:37;;;;;;;21.57;14.80;;;16.80;99.90;;;;;;5093451;28;20242;-79
2021/09/24 05:29:03;;;;;;;22.53;14.07;;;16.80;99.90;;;;;;5074946;28;20533;-80
2021/09/24 05:31:29;;;;;;;21.13;14.97;;;16.90;99.90;;;;;;5075022;28;20358;-80
2021/09/24 05:33:55;;;;;;;25.90;14.90;;;16.90;99.90;;;;;;5092499;28;20167;-81
2021/09/24 05:36:20;;;;;;;23.83;14.53;;;16.80;99.90;;;;;;5076659;28;20211;-80
2021/09/24 05:38:46;;;;;;;23.33;14.97;;;16.80;99.90;;;;;;5096560;28;20167;-79
2021/09/24 05:41:12;;;;;;;24.50;16.20;;;16.80;99.90;;;;;;5078912;28;20172;-79
2021/09/24 05:43:38;;;;;;;25.63;16.13;;;16.80;99.90;;;;;;5078157;28;20172;-80
2021/09/24 05:46:04;;;;;;;25.10;15.93;;;16.70;99.90;;;;;;5079124;28;20172;-79
2021/09/24 05:48:30;;;;;;;24.97;16.80;;;16.80;99.90;;;;;;5101397;28;20191;-82
2021/09/24 05:50:56;;;;;;;27.20;16.40;;;16.90;99.90;;;;;;5101481;28;20199;-79
2021/09/24 05:53:23;;;;;;;23.37;15.57;;;16.90;99.90;;;;;;5097186;28;20247;-82
2021/09/24 05:55:49;;;;;;;26.20;16.13;;;16.80;99.90;;;;;;5097565;28;20230;-80
2021/09/24 05:58:16;;;;;;;21.57;16.33;;;16.90;99.90;;;;;;5097351;28;20616;-80
2021/09/24 06:00:42;;;;;;;26.30;15.80;;;17.10;99.90;;;;;;5096550;28;20271;-81
2021/09/24 06:03:11;;;;;;;27.50;17.83;;;16.90;99.90;;;;;;5097187;28;20641;-79
2021/09/24 06:05:36;;;;;;;24.20;16.83;;;17.00;99.90;;;;;;5098015;28;20188;-85
2021/09/24 06:08:02;;;;;;;25.27;17.53;;;17.20;99.90;;;;;;5098407;28;20190;-80
2021/09/24 06:10:28;;;;;;;22.33;16.70;;;17.00;99.90;;;;;;5106264;28;20634;-78
2021/09/24 06:12:54;;;;;;;19.73;15.97;;;17.10;99.90;;;;;;5104923;28;20168;-79
2021/09/24 06:15:23;;;;;;;26.10;16.23;;;17.00;99.90;;;;;;5091468;28;20736;-77
2021/09/24 06:17:50;;;;;;;24.63;15.83;;;17.10;99.90;;;;;;5095173;28;20168;-79
2021/09/24 06:20:16;;;;;;;22.33;16.43;;;17.20;99.90;;;;;;5095884;28;20194;-78
2021/09/24 06:22:42;;;;;;;27.77;16.93;;;17.20;99.90;;;;;;5095684;28;20221;-78
2021/09/24 06:25:09;;;;;;;23.57;16.33;;;17.30;99.90;;;;;;5095654;28;20250;-79
2021/09/24 06:27:38;;;;;;;24.73;15.93;;;17.30;99.90;;;;;;5095964;28;20160;-81
2021/09/24 06:30:09;;;;;;;22.47;16.47;;;17.30;99.90;;;;;;5094798;28;20193;-80
2021/09/24 06:32:35;;;;;;;26.33;16.30;;;17.30;99.90;;;;;;5095705;28;20163;-76
2021/09/24 06:35:01;;;;;;;24.60;15.13;;;17.40;99.90;;;;;;5077432;28;20519;-78
2021/09/24 06:37:27;;;;;;;25.07;15.10;;;17.30;99.90;;;;;;5096100;28;20247;-76
2021/09/24 06:39:53;;;;;;;25.03;16.13;;;17.30;99.90;;;;;;5095993;28;20211;-81
2021/09/24 06:42:18;;;;;;;21.73;14.63;;;17.30;99.90;;;;;;5096123;28;20206;-80
2021/09/24 06:44:44;;;;;;;22.80;14.83;;;17.30;99.90;;;;;;5096189;28;20309;-80
2021/09/24 06:47:11;;;;;;;29.47;15.07;;;17.40;99.90;;;;;;5108518;28;20152;-75
2021/09/24 06:49:37;;;;;;;24.83;15.30;;;17.40;99.90;;;;;;5114425;28;20175;-77
2021/09/24 06:52:04;;;;;;;22.33;14.83;;;17.50;99.90;;;;;;5100665;28;20205;-78
2021/09/24 06:54:30;;;;;;;24.53;15.07;;;17.50;99.90;;;;;;5097719;28;20168;-77
2021/09/24 06:56:56;;;;;;;20.63;13.90;;;17.50;99.90;;;;;;5078448;28;20642;-79
2021/09/24 06:59:21;;;;;;;20.30;14.17;;;17.50;99.90;;;;;;5094921;28;20225;-81
2021/09/24 07:01:47;;;;;;;22.63;14.80;;;17.40;99.90;;;;;;5095028;28;20508;-79
2021/09/24 07:04:14;;;;;;;21.37;12.83;;;17.40;99.90;;;;;;5096449;28;20179;-78
2021/09/24 07:06:40;;;;;;;22.30;14.07;;;17.30;99.90;;;;;;5080126;28;20198;-77
2021/09/24 07:09:06;;;;;;;21.63;13.67;;;17.40;99.90;;;;;;5113303;28;20167;-78
2021/09/24 07:11:32;;;;;;;21.53;13.97;;;17.30;99.90;;;;;;5090596;28;20619;-79
2021/09/24 07:13:58;;;;;;;24.50;14.60;;;17.40;99.90;;;;;;5106147;28;20196;-78
2021/09/24 07:16:24;;;;;;;22.03;13.97;;;17.40;99.90;;;;;;5114428;28;20192;-75
2021/09/24 07:18:50;;;;;;;20.57;14.20;;;17.40;99.90;;;;;;5110589;28;20160;-79
2021/09/24 07:21:16;;;;;;;23.20;13.63;;;17.40;99.90;;;;;;5100906;28;20167;-77
2021/09/24 07:23:48;;;;;;;23.93;13.90;;;17.60;99.90;;;;;;5103490;28;20183;-78
2021/09/24 07:26:13;;;;;;;21.50;14.03;;;17.60;99.90;;;;;;5103794;28;20163;-77
2021/09/24 07:28:51;;;;;;;24.03;14.40;;;17.60;99.90;;;;;;5102240;28;20185;-76
2021/09/24 07:31:18;;;;;;;23.27;13.77;;;17.70;99.90;;;;;;5095115;28;20198;-77
2021/09/24 07:33:43;;;;;;;19.93;13.80;;;17.70;99.90;;;;;;5094666;28;20256;-76
2021/09/24 07:36:10;;;;;;;24.73;15.17;;;17.60;99.90;;;;;;5095290;28;20678;-79
2021/09/24 07:38:35;;;;;;;25.93;15.20;;;17.70;99.90;;;;;;5095446;28;20176;-78
2021/09/24 07:41:01;;;;;;;23.93;15.37;;;17.80;99.90;;;;;;5094764;28;20220;-80
2021/09/24 07:43:28;;;;;;;23.63;15.07;;;18.00;99.90;;;;;;5094948;28;20199;-80
2021/09/24 07:45:56;;;;;;;26.20;15.27;;;18.00;99.90;;;;;;5095071;28;20194;-81
2021/09/24 07:48:22;;;;;;;26.70;16.00;;;18.00;99.90;;;;;;5080943;28;20213;-77
2021/09/24 07:50:47;;;;;;;25.17;16.27;;;18.10;99.90;;;;;;5112523;28;20193;-79
2021/09/24 07:53:13;;;;;;;30.80;16.23;;;18.10;99.90;;;;;;5095868;28;20629;-77
2021/09/24 07:55:39;;;;;;;29.93;16.17;;;18.20;99.90;;;;;;5093938;28;20211;-81
2021/09/24 07:58:04;;;;;;;32.90;16.70;;;18.20;99.90;;;;;;5093357;28;20679;-81
2021/09/24 08:00:30;;;;;;;23.00;15.83;;;18.30;99.90;;;;;;5094555;28;20175;-81
2021/09/24 08:02:57;;;;;;;22.47;16.13;;;18.20;99.90;;;;;;5094567;28;20227;-81
2021/09/24 08:05:26;;;;;;;23.33;15.67;;;18.10;99.90;;;;;;5076150;28;20206;-80
2021/09/24 08:07:54;;;;;;;25.00;15.47;;;17.90;99.90;;;;;;5094434;28;20279;-80
2021/09/24 08:10:20;;;;;;;20.23;14.77;;;18.00;99.90;;;;;;5094665;28;20168;-78
2021/09/24 08:12:46;;;;;;;23.30;15.27;;;18.00;99.90;;;;;;5094174;28;20655;-80
2021/09/24 08:15:14;;;;;;;22.57;15.07;;;18.10;99.90;;;;;;5094282;28;20381;-80
2021/09/24 08:17:39;;;;;;;21.50;15.10;;;18.20;99.90;;;;;;5094352;28;20635;-80
2021/09/24 08:20:07;;;;;;;21.70;14.73;;;18.20;99.90;;;;;;5094285;28;20171;-81
2021/09/24 08:22:38;;;;;;;19.87;14.67;;;18.10;99.90;;;;;;5093913;28;20627;-80
2021/09/24 08:25:09;;;;;;;23.70;14.73;;;18.20;99.90;;;;;;5076356;28;20682;-81
2021/09/24 08:27:36;;;;;;;26.77;14.97;;;18.30;99.90;;;;;;5093958;28;20692;-79
2021/09/24 08:30:08;;;;;;;20.27;13.63;;;18.40;99.90;;;;;;5094933;28;20172;-77
2021/09/24 08:32:37;;;;;;;27.07;15.87;;;18.40;99.90;;;;;;5098475;28;20191;-80
2021/09/24 08:35:04;;;;;;;23.43;14.53;;;18.20;99.90;;;;;;5093854;28;20199;-79
2021/09/24 08:37:30;;;;;;;22.70;15.10;;;18.20;99.90;;;;;;5093842;28;20188;-78
2021/09/24 08:39:55;;;;;;;26.77;14.63;;;18.30;99.90;;;;;;5094108;28;20164;-80
2021/09/24 08:42:21;;;;;;;23.83;14.87;;;18.30;99.90;;;;;;5094403;28;20167;-77
2021/09/24 08:44:49;;;;;;;23.47;14.33;;;18.30;99.90;;;;;;5095223;28;20177;-80
2021/09/24 08:47:16;;;;;;;22.80;14.30;;;18.50;99.90;;;;;;5094371;28;20194;-81
2021/09/24 08:49:44;;;;;;;21.23;13.00;;;18.50;99.90;;;;;;5102605;28;20164;-81
2021/09/24 08:52:10;;;;;;;23.57;14.07;;;18.60;99.90;;;;;;5099356;28;20171;-80
2021/09/24 08:54:36;;;;;;;20.07;13.80;;;18.70;99.90;;;;;;5094836;28;20244;-81
2021/09/24 08:57:02;;;;;;;15.03;11.70;;;18.70;99.90;;;;;;5093837;28;20175;-81
2021/09/24 08:59:28;;;;;;;18.77;12.53;;;18.90;99.90;;;;;;5075628;28;20180;-81
2021/09/24 09:01:59;;;;;;;18.97;12.20;;;18.90;99.90;;;;;;5094049;28;20263;-78
2021/09/24 09:04:55;;;;;;;19.30;11.80;;;18.90;99.90;;;;;;5093298;28;20196;-81
2021/09/24 09:07:21;;;;;;;17.50;10.93;;;19.00;99.90;;;;;;5076971;28;20663;-80
2021/09/24 09:09:51;;;;;;;18.80;10.93;;;19.10;99.90;;;;;;5093412;28;20177;-80
2021/09/24 09:12:28;;;;;;;15.37;10.07;;;19.20;99.90;;;;;;5100515;28;20172;-80
2021/09/24 09:15:03;;;;;;;20.10;11.10;;;19.30;99.90;;;;;;5101369;28;20195;-78
2021/09/24 09:17:31;;;;;;;20.00;11.17;;;19.30;99.90;;;;;;5097343;28;20623;-81
2021/09/24 09:20:11;;;;;;;15.23;10.30;;;19.40;99.80;;;;;;5097493;28;20683;-79
2021/09/24 09:22:38;;;;;;;16.03;10.63;;;19.30;99.80;;;;;;5098768;28;20178;-80
2021/09/24 09:25:10;;;;;;;15.13;10.50;;;19.40;99.60;;;;;;5097727;28;20172;-80
2021/09/24 09:27:36;;;;;;;20.77;11.43;;;19.40;99.40;;;;;;5081581;28;20175;-80
2021/09/24 09:30:11;;;;;;;14.60;10.70;;;19.40;99.50;;;;;;5105580;28;20175;-80
2021/09/24 09:32:38;;;;;;;15.23;10.33;;;19.50;98.90;;;;;;5102224;28;20522;-81
2021/09/24 09:35:06;;;;;;;14.13;10.30;;;19.80;97.70;;;;;;5100147;28;20207;-80
2021/09/24 09:37:35;;;;;;;18.53;11.30;;;19.90;96.80;;;;;;5099889;28;20246;-81
2021/09/24 09:40:27;;;;;;;17.17;11.13;;;19.90;96.30;;;;;;5097798;28;20263;-78
2021/09/24 09:42:57;;;;;;;14.80;10.17;;;19.80;96.50;;;;;;5084214;28;20191;-81
2021/09/24 09:45:24;;;;;;;11.83;10.07;;;19.90;96.30;;;;;;5102187;28;20210;-80
2021/09/24 09:47:52;;;;;;;18.50;10.93;;;20.00;95.50;;;;;;5097175;28;20258;-79
2021/09/24 09:50:26;;;;;;;14.87;10.53;;;20.00;95.60;;;;;;5096367;28;20199;-77
2021/09/24 09:53:12;;;;;;;15.03;10.80;;;19.90;95.80;;;;;;5078133;28;20236;-77
2021/09/24 09:55:41;;;;;;;14.77;9.87;;;19.90;95.50;;;;;;5096046;28;20659;-79
2021/09/24 09:58:11;;;;;;;12.87;9.60;;;19.80;96.20;;;;;;5096402;28;20221;-79
2021/09/24 10:00:59;;;;;;;17.97;10.17;;;19.80;95.70;;;;;;5083668;28;20172;-81
2021/09/24 10:03:32;;;;;;;15.13;9.80;;;19.80;95.80;;;;;;5106051;28;20504;-78
2021/09/24 10:05:58;;;;;;;11.90;9.10;;;19.80;94.90;;;;;;5077720;28;20274;-78
2021/09/24 10:08:33;;;;;;;14.00;9.07;;;19.80;95.10;;;;;;5095937;28;20262;-80
2021/09/24 10:11:06;;;;;;;9.57;8.03;;;19.90;94.90;;;;;;5096491;28;20167;-79
2021/09/24 10:13:47;;;;;;;11.80;7.87;;;19.90;95.10;;;;;;5095819;28;20171;-77
2021/09/24 10:16:14;;;;;;;12.90;7.47;;;20.00;94.50;;;;;;5095438;28;20272;-78
2021/09/24 10:18:40;;;;;;;11.30;7.60;;;20.00;92.00;;;;;;5095958;28;20184;-80
2021/09/24 10:21:06;;;;;;;295.23;136.67;;;20.20;92.20;;;;;;5095732;28;20172;-80
2021/09/24 10:23:32;;;;;;;16.17;9.40;;;20.20;91.00;;;;;;5096187;28;20693;-81
2021/09/24 10:26:04;;;;;;;14.93;8.23;;;20.30;89.80;;;;;;5097127;28;20554;-81
2021/09/24 10:28:36;;;;;;;13.63;7.40;;;20.40;88.70;;;;;;5078541;28;20183;-77
2021/09/24 10:31:03;;;;;;;12.27;7.83;;;20.70;87.30;;;;;;5095767;28;20217;-80
2021/09/24 10:33:46;;;;;;;9.73;7.33;;;20.80;85.10;;;;;;5096506;28;20204;-79
2021/09/24 10:36:35;;;;;;;9.43;7.00;;;20.90;84.40;;;;;;5095197;28;20216;-79
2021/09/24 10:39:01;;;;;;;12.47;7.20;;;20.80;84.00;;;;;;5076968;28;20180;-79
2021/09/24 10:41:28;;;;;;;9.73;7.23;;;20.90;83.50;;;;;;5096006;28;20196;-79
2021/09/24 10:43:56;;;;;;;11.80;7.47;;;20.90;84.60;;;;;;5104505;28;20173;-78
2021/09/24 10:46:27;;;;;;;9.73;6.73;;;20.80;85.90;;;;;;5116630;28;20170;-76
2021/09/24 10:49:11;;;;;;;12.47;7.30;;;20.90;85.00;;;;;;5103839;28;20215;-77
2021/09/24 10:51:38;;;;;;;13.17;7.47;;;20.90;83.50;;;;;;5096118;28;20161;-77
2021/09/24 10:54:30;;;;;;;9.27;7.20;;;21.00;82.50;;;;;;5095909;28;20231;-80
2021/09/24 10:57:08;;;;;;;9.90;7.30;;;21.00;81.50;;;;;;5075519;28;20572;-80
2021/09/24 10:59:34;;;;;;;10.97;6.90;;;21.20;80.60;;;;;;5095806;28;20537;-81
2021/09/24 11:02:20;;;;;;;10.57;6.63;;;21.10;80.70;;;;;;5095830;28;20169;-81
2021/09/24 11:04:48;;;;;;;8.47;6.37;;;21.00;79.90;;;;;;5096141;28;20282;-78
2021/09/24 11:07:28;;;;;;;11.57;6.80;;;21.00;80.90;;;;;;5100578;28;20187;-81
2021/09/24 11:09:54;;;;;;;9.27;5.93;;;21.00;81.80;;;;;;5105730;28;20170;-77
2021/09/24 11:12:20;;;;;;;9.37;6.30;;;21.00;80.70;;;;;;5113328;28;20199;-77
2021/09/24 11:14:45;;;;;;;8.87;5.77;;;21.00;80.10;;;;;;5096580;28;20214;-80
2021/09/24 11:17:32;;;;;;;6.80;4.87;;;21.00;77.80;;;;;;5100918;28;20160;-77
2021/09/24 11:19:58;;;;;;;7.80;5.97;;;20.90;77.50;;;;;;5078448;28;20206;-81
2021/09/24 11:22:37;;;;;;;10.60;6.93;;;20.80;80.50;;;;;;5095528;28;20165;-81
2021/09/24 11:25:09;;;;;;;6.80;5.30;;;20.80;83.10;;;;;;5107351;28;20161;-76
2021/09/24 11:27:42;;;;;;;6.53;4.93;;;20.90;81.50;;;;;;5105895;28;20214;-80
2021/09/24 11:30:18;;;;;;;9.50;5.00;;;20.90;79.40;;;;;;5103667;28;20164;-78
2021/09/24 11:32:47;;;;;;;8.47;4.57;;;20.80;81.40;;;;;;5097954;28;20238;-78
2021/09/24 11:35:39;;;;;;;58.07;30.80;;;20.90;79.40;;;;;;5094657;28;20206;-79
2021/09/24 11:38:15;;;;;;;9.30;5.50;;;20.80;80.00;;;;;;5086867;28;20196;-79
2021/09/24 11:40:48;;;;;;;5.30;4.37;;;20.70;81.10;;;;;;5095507;28;20195;-83
2021/09/24 11:43:28;;;;;;;5.30;4.00;;;20.80;80.00;;;;;;5095258;28;20210;-79
2021/09/24 11:45:59;;;;;;;5.87;3.80;;;20.90;80.10;;;;;;5076594;28;20569;-81
2021/09/24 11:48:34;;;;;;;8.03;3.80;;;21.10;78.70;;;;;;5076532;28;20201;-81
2021/09/24 11:51:23;;;;;;;5.07;2.80;;;21.20;76.00;;;;;;5094298;28;20177;-79
2021/09/24 11:53:52;;;;;;;5.27;3.10;;;21.20;74.50;;;;;;5094795;28;20662;-78
2021/09/24 11:56:34;;;;;;;5.80;3.43;;;21.30;73.40;;;;;;5095748;28;20719;-78
2021/09/24 11:59:02;;;;;;;6.17;2.87;;;21.50;71.80;;;;;;5096071;28;20160;-79
2021/09/24 12:01:28;;;;;;;4.87;2.43;;;21.70;68.70;;;;;;5096583;28;20187;-81
2021/09/24 12:03:58;;;;;;;3.87;2.70;;;21.70;64.30;;;;;;5095326;28;20245;-78
2021/09/24 12:06:27;;;;;;;5.87;2.70;;;21.90;65.20;;;;;;5096159;28;20187;-80
2021/09/24 12:08:59;;;;;;;9.30;3.00;;;22.00;67.30;;;;;;5079906;28;20177;-80
2021/09/24 12:11:29;;;;;;;4.47;2.30;;;21.90;71.10;;;;;;5096983;28;20210;-77
2021/09/24 12:14:03;;;;;;;3.63;1.90;;;21.80;66.80;;;;;;5099224;28;20169;-81
2021/09/24 12:16:33;;;;;;;4.77;2.20;;;21.80;69.30;;;;;;5080048;28;20199;-78
2021/09/24 12:19:01;;;;;;;5.10;1.90;;;21.70;67.10;;;;;;5105954;28;20153;-82
2021/09/24 12:21:48;;;;;;;2.53;1.67;;;21.50;70.40;;;;;;5089534;28;20182;-80
2021/09/24 12:24:37;;;;;;;5.40;2.00;;;21.40;68.60;;;;;;5096897;28;20170;-81
2021/09/24 12:27:07;;;;;;;4.53;2.27;;;21.20;73.70;;;;;;5079068;28;20621;-80
2021/09/24 12:29:34;;;;;;;4.03;1.87;;;21.30;75.60;;;;;;5076560;28;20230;-81
2021/09/24 12:32:11;;;;;;;6.20;2.10;;;21.30;74.20;;;;;;5094274;28;20169;-78
2021/09/24 12:34:45;;;;;;;3.33;1.40;;;21.50;73.70;;;;;;5096629;28;20230;-81
2021/09/24 12:37:13;;;;;;;8.50;1.60;;;21.50;68.20;;;;;;5081229;28;20267;-77
2021/09/24 12:39:41;;;;;;;2.63;1.40;;;21.60;65.50;;;;;;5096133;28;20158;-77